Time,TemperatureF,DewpointF,PressureIn,WindDirection,WindDirectionDegrees,WindSpeedMPH,WindSpeedGustMPH,Humidity,HourlyPrecipIn,Conditions,Clouds,dailyrainin,SolarRadiationWatts/m^2,SoftwareType,DateUTC
2013-03-06 00:21:00,45.0,41.0,-100.00,ESE,104,16.0,23.0,87,0.00,,,0.00,0.000000,,2013-03-06 10:21:00,
2013-03-06 00:31:00,45.0,41.0,-100.00,ESE,104,16.0,23.0,87,0.00,,,0.00,0.000000,,2013-03-06 10:31:00,
2013-03-06 00:42:00,45.0,41.0,-100.00,ESE,104,16.0,23.0,87,0.00,,,0.00,0.000000,,2013-03-06 10:42:00,
2013-03-06 00:51:00,45.0,41.0,-100.00,ESE,104,16.0,23.0,87,0.00,,,0.00,0.000000,,2013-03-06 10:51:00,
2013-03-06 01:22:00,44.0,40.0,-100.00,ESE,116,17.0,29.0,86,0.00,,,0.00,0.000000,,2013-03-06 11:22:00,
2013-03-06 01:32:00,44.0,40.0,-100.00,ESE,116,17.0,29.0,86,0.00,,,0.00,0.000000,,2013-03-06 11:32:00,
2013-03-06 01:42:00,44.0,40.0,-100.00,ESE,116,17.0,29.0,86,0.00,,,0.00,0.000000,,2013-03-06 11:42:00,
2013-03-06 01:52:00,44.0,40.0,-100.00,ESE,116,17.0,29.0,86,0.00,,,0.00,0.000000,,2013-03-06 11:52:00,
2013-03-06 02:21:00,44.0,43.0,-100.00,ESE,117,14.0,25.0,95,0.00,,,0.00,0.000000,,2013-03-06 12:21:00,
2013-03-06 02:32:00,44.0,43.0,-100.00,ESE,117,14.0,25.0,95,0.00,,,0.00,0.000000,,2013-03-06 12:32:00,
2013-03-06 02:42:00,44.0,43.0,-100.00,ESE,117,14.0,25.0,95,0.00,,,0.00,0.000000,,2013-03-06 12:42:00,
2013-03-06 02:52:00,44.0,43.0,-100.00,ESE,117,14.0,25.0,95,0.00,,,0.00,0.000000,,2013-03-06 12:52:00,
2013-03-06 03:21:00,46.0,45.0,-100.00,ESE,122,13.0,22.0,95,0.00,,,0.00,0.000000,,2013-03-06 13:21:00,
2013-03-06 03:32:00,46.0,45.0,-100.00,ESE,122,13.0,22.0,95,0.00,,,0.00,0.000000,,2013-03-06 13:32:00,
2013-03-06 03:42:00,46.0,45.0,-100.00,ESE,122,13.0,22.0,95,0.00,,,0.00,0.000000,,2013-03-06 13:42:00,
2013-03-06 03:51:00,46.0,45.0,-100.00,ESE,122,13.0,22.0,95,0.00,,,0.00,0.000000,,2013-03-06 13:51:00,
2013-03-06 04:21:00,45.0,44.0,-100.00,ESE,115,16.0,23.0,95,0.00,,,0.00,0.000000,,2013-03-06 14:21:00,
2013-03-06 04:32:00,45.0,44.0,-100.00,ESE,115,16.0,23.0,95,0.00,,,0.00,0.000000,,2013-03-06 14:32:00,
2013-03-06 04:41:00,45.0,44.0,-100.00,ESE,115,16.0,23.0,95,0.00,,,0.00,0.000000,,2013-03-06 14:41:00,
2013-03-06 04:52:00,45.0,44.0,-100.00,ESE,115,16.0,23.0,95,0.00,,,0.00,0.000000,,2013-03-06 14:52:00,
2013-03-06 05:21:00,43.0,42.0,-100.00,ESE,111,15.0,23.0,96,0.00,,,0.00,0.000000,,2013-03-06 15:21:00,
2013-03-06 05:32:00,43.0,42.0,-100.00,ESE,111,15.0,23.0,96,0.00,,,0.00,0.000000,,2013-03-06 15:32:00,
2013-03-06 05:42:00,43.0,42.0,-100.00,ESE,111,15.0,23.0,96,0.00,,,0.00,0.000000,,2013-03-06 15:42:00,
2013-03-06 05:51:00,43.0,42.0,-100.00,ESE,111,15.0,23.0,96,0.00,,,0.00,0.000000,,2013-03-06 15:51:00,
2013-03-06 06:21:00,45.0,40.0,-100.00,ESE,117,14.0,22.0,81,0.00,,,0.00,0.000000,,2013-03-06 16:21:00,
2013-03-06 06:32:00,45.0,40.0,-100.00,ESE,117,14.0,22.0,81,0.00,,,0.00,0.000000,,2013-03-06 16:32:00,
2013-03-06 06:41:00,45.0,40.0,-100.00,ESE,117,14.0,22.0,81,0.00,,,0.00,0.000000,,2013-03-06 16:41:00,
2013-03-06 06:51:00,45.0,40.0,-100.00,ESE,117,14.0,22.0,81,0.00,,,0.00,0.000000,,2013-03-06 16:51:00,
2013-03-06 07:21:00,43.0,41.0,-100.00,ESE,113,15.0,22.0,93,0.00,,,0.00,2.000000,,2013-03-06 17:21:00,
2013-03-06 07:32:00,43.0,41.0,-100.00,ESE,113,15.0,22.0,93,0.00,,,0.00,2.000000,,2013-03-06 17:32:00,
2013-03-06 07:41:00,43.0,41.0,-100.00,ESE,113,15.0,22.0,93,0.00,,,0.00,2.000000,,2013-03-06 17:41:00,
2013-03-06 07:52:00,43.0,41.0,-100.00,ESE,113,15.0,22.0,93,0.00,,,0.00,2.000000,,2013-03-06 17:52:00,
2013-03-06 08:28:00,50.0,39.0,-100.00,ESE,110,13.0,21.0,67,0.00,,,0.00,208.000000,,2013-03-06 18:28:00,
2013-03-06 08:42:00,50.0,39.0,-100.00,ESE,110,13.0,21.0,67,0.00,,,0.00,208.000000,,2013-03-06 18:42:00,
2013-03-06 08:52:00,50.0,39.0,-100.00,ESE,110,13.0,21.0,67,0.00,,,0.00,208.000000,,2013-03-06 18:52:00,
2013-03-06 09:21:00,58.0,28.0,-100.00,ESE,104,15.0,22.0,32,0.00,,,0.00,497.000000,,2013-03-06 19:21:00,
2013-03-06 09:32:00,58.0,28.0,-100.00,ESE,104,15.0,22.0,32,0.00,,,0.00,497.000000,,2013-03-06 19:32:00,
2013-03-06 09:42:00,58.0,28.0,-100.00,ESE,104,15.0,22.0,32,0.00,,,0.00,497.000000,,2013-03-06 19:42:00,
2013-03-06 09:52:00,58.0,28.0,-100.00,ESE,104,15.0,22.0,32,0.00,,,0.00,497.000000,,2013-03-06 19:52:00,
2013-03-06 10:22:00,57.0,42.0,-100.00,East,94,18.0,27.0,58,0.00,,,0.00,865.000000,,2013-03-06 20:22:00,
2013-03-06 10:32:00,57.0,42.0,-100.00,East,94,18.0,27.0,58,0.00,,,0.00,865.000000,,2013-03-06 20:32:00,
2013-03-06 10:42:00,57.0,42.0,-100.00,East,94,18.0,27.0,58,0.00,,,0.00,865.000000,,2013-03-06 20:42:00,
2013-03-06 10:52:00,57.0,42.0,-100.00,East,94,18.0,27.0,58,0.00,,,0.00,865.000000,,2013-03-06 20:52:00,
2013-03-06 11:22:00,58.0,42.0,-100.00,East,99,16.0,30.0,56,0.00,,,0.00,1088.000000,,2013-03-06 21:22:00,
2013-03-06 11:32:00,58.0,42.0,-100.00,East,99,16.0,30.0,56,0.00,,,0.00,1088.000000,,2013-03-06 21:32:00,
2013-03-06 11:42:00,58.0,42.0,-100.00,East,99,16.0,30.0,56,0.00,,,0.00,1088.000000,,2013-03-06 21:42:00,
2013-03-06 11:51:00,58.0,42.0,-100.00,East,99,16.0,30.0,56,0.00,,,0.00,1088.000000,,2013-03-06 21:51:00,
2013-03-06 12:21:00,64.0,39.0,-100.00,East,93,14.0,26.0,40,0.00,,,0.00,1236.000000,,2013-03-06 22:21:00,
2013-03-06 12:32:00,64.0,39.0,-100.00,East,93,14.0,26.0,40,0.00,,,0.00,1236.000000,,2013-03-06 22:32:00,
2013-03-06 12:41:00,64.0,39.0,-100.00,East,93,14.0,26.0,40,0.00,,,0.00,1236.000000,,2013-03-06 22:41:00,
2013-03-06 12:51:00,64.0,39.0,-100.00,East,93,14.0,26.0,40,0.00,,,0.00,1236.000000,,2013-03-06 22:51:00,
2013-03-06 13:21:00,66.0,27.0,-100.00,East,91,9.0,22.0,23,0.00,,,0.00,1292.000000,,2013-03-06 23:21:00,
2013-03-06 13:31:00,66.0,27.0,-100.00,East,91,9.0,22.0,23,0.00,,,0.00,1292.000000,,2013-03-06 23:31:00,
2013-03-06 13:41:00,66.0,27.0,-100.00,East,91,9.0,22.0,23,0.00,,,0.00,1292.000000,,2013-03-06 23:41:00,
2013-03-06 13:52:00,66.0,27.0,-100.00,East,91,9.0,22.0,23,0.00,,,0.00,1292.000000,,2013-03-06 23:52:00,
2013-03-06 14:21:00,60.0,48.0,-100.00,NW,305,11.0,24.0,64,0.00,,,0.00,1086.000000,,2013-03-07 00:21:00,
2013-03-06 14:32:00,60.0,48.0,-100.00,NW,305,11.0,24.0,64,0.00,,,0.00,1086.000000,,2013-03-07 00:32:00,
2013-03-06 14:41:00,60.0,48.0,-100.00,NW,305,11.0,24.0,64,0.00,,,0.00,1086.000000,,2013-03-07 00:41:00,
2013-03-06 14:51:00,60.0,48.0,-100.00,NW,305,11.0,24.0,64,0.00,,,0.00,1086.000000,,2013-03-07 00:51:00,
2013-03-06 15:21:00,60.0,51.0,-100.00,NW,316,12.0,21.0,71,0.00,,,0.00,628.000000,,2013-03-07 01:21:00,
2013-03-06 15:31:00,60.0,51.0,-100.00,NW,316,12.0,21.0,71,0.00,,,0.00,628.000000,,2013-03-07 01:31:00,
2013-03-06 15:41:00,60.0,51.0,-100.00,NW,316,12.0,21.0,71,0.00,,,0.00,628.000000,,2013-03-07 01:41:00,
2013-03-06 15:51:00,60.0,51.0,-100.00,NW,316,12.0,21.0,71,0.00,,,0.00,628.000000,,2013-03-07 01:51:00,
2013-03-06 16:21:00,54.0,51.0,-100.00,WNW,290,7.0,20.0,90,0.00,,,0.00,270.000000,,2013-03-07 02:21:00,
2013-03-06 16:31:00,54.0,51.0,-100.00,WNW,290,7.0,20.0,90,0.00,,,0.00,270.000000,,2013-03-07 02:31:00,
2013-03-06 16:41:00,54.0,51.0,-100.00,WNW,290,7.0,20.0,90,0.00,,,0.00,270.000000,,2013-03-07 02:41:00,
2013-03-06 16:51:00,54.0,51.0,-100.00,WNW,290,7.0,20.0,90,0.00,,,0.00,270.000000,,2013-03-07 02:51:00,
2013-03-06 17:21:00,54.0,51.0,-100.00,WNW,301,7.0,11.0,89,0.00,,,0.00,137.000000,,2013-03-07 03:21:00,
2013-03-06 17:31:00,54.0,51.0,-100.00,WNW,301,7.0,11.0,89,0.00,,,0.00,137.000000,,2013-03-07 03:31:00,
2013-03-06 17:41:00,54.0,51.0,-100.00,WNW,301,7.0,11.0,89,0.00,,,0.00,137.000000,,2013-03-07 03:41:00,
2013-03-06 17:51:00,54.0,51.0,-100.00,WNW,301,7.0,11.0,89,0.00,,,0.00,137.000000,,2013-03-07 03:51:00,
2013-03-06 18:21:00,52.0,49.0,-100.00,NW,326,7.0,10.0,88,0.00,,,0.00,156.000000,,2013-03-07 04:21:00,
2013-03-06 18:31:00,52.0,49.0,-100.00,NW,326,7.0,10.0,88,0.00,,,0.00,156.000000,,2013-03-07 04:31:00,
2013-03-06 18:41:00,52.0,49.0,-100.00,NW,326,7.0,10.0,88,0.00,,,0.00,156.000000,,2013-03-07 04:41:00,
2013-03-06 18:51:00,52.0,49.0,-100.00,NW,326,7.0,10.0,88,0.00,,,0.00,156.000000,,2013-03-07 04:51:00,
2013-03-06 19:22:00,51.0,48.0,-100.00,East,84,7.0,12.0,88,0.00,,,0.00,4.000000,,2013-03-07 05:22:00,
2013-03-06 19:32:00,51.0,48.0,-100.00,East,84,7.0,12.0,88,0.00,,,0.00,4.000000,,2013-03-07 05:32:00,
2013-03-06 19:41:00,51.0,48.0,-100.00,East,84,7.0,12.0,88,0.00,,,0.00,4.000000,,2013-03-07 05:41:00,
2013-03-06 19:52:00,51.0,48.0,-100.00,East,84,7.0,12.0,88,0.00,,,0.00,4.000000,,2013-03-07 05:52:00,
2013-03-06 20:21:00,50.0,47.0,-100.00,East,98,11.0,17.0,88,0.00,,,0.00,0.000000,,2013-03-07 06:21:00,
2013-03-06 20:31:00,50.0,47.0,-100.00,East,98,11.0,17.0,88,0.00,,,0.00,0.000000,,2013-03-07 06:31:00,
2013-03-06 20:41:00,50.0,47.0,-100.00,East,98,11.0,17.0,88,0.00,,,0.00,0.000000,,2013-03-07 06:41:00,
2013-03-06 20:51:00,50.0,47.0,-100.00,East,98,11.0,17.0,88,0.00,,,0.00,0.000000,,2013-03-07 06:51:00,
2013-03-06 21:21:00,50.0,47.0,-100.00,ESE,109,10.0,14.0,89,0.00,,,0.00,0.000000,,2013-03-07 07:21:00,
2013-03-06 21:32:00,50.0,47.0,-100.00,ESE,109,10.0,14.0,89,0.00,,,0.00,0.000000,,2013-03-07 07:32:00,
2013-03-06 21:42:00,50.0,47.0,-100.00,ESE,109,10.0,14.0,89,0.00,,,0.00,0.000000,,2013-03-07 07:42:00,
2013-03-06 21:51:00,50.0,47.0,-100.00,ESE,109,10.0,14.0,89,0.00,,,0.00,0.000000,,2013-03-07 07:51:00,
2013-03-06 22:22:00,48.0,45.0,-100.00,ESE,122,10.0,17.0,90,0.00,,,0.00,0.000000,,2013-03-07 08:22:00,
2013-03-06 22:32:00,48.0,45.0,-100.00,ESE,122,10.0,17.0,90,0.00,,,0.00,0.000000,,2013-03-07 08:32:00,
2013-03-06 22:43:00,48.0,45.0,-100.00,ESE,122,10.0,17.0,90,0.00,,,0.00,0.000000,,2013-03-07 08:43:00,
2013-03-06 22:52:00,48.0,45.0,-100.00,ESE,122,10.0,17.0,90,0.00,,,0.00,0.000000,,2013-03-07 08:52:00,
2013-03-06 23:22:00,47.0,42.0,-100.00,ESE,114,7.0,16.0,82,0.00,,,0.00,0.000000,,2013-03-07 09:22:00,
2013-03-06 23:32:00,47.0,42.0,-100.00,ESE,114,7.0,16.0,82,0.00,,,0.00,0.000000,,2013-03-07 09:32:00,
2013-03-06 23:42:00,47.0,42.0,-100.00,ESE,114,7.0,16.0,82,0.00,,,0.00,0.000000,,2013-03-07 09:42:00,
2013-03-06 23:52:00,47.0,42.0,-100.00,ESE,114,7.0,16.0,82,0.00,,,0.00,0.000000,,2013-03-07 09:52:00,